Time;durP1;ratioP1;P1;durP2;ratioP2;P2;SDS_P1;SDS_P2;PMS_P1;PMS_P2;Temp;Humidity;BMP_temperature;BMP_pressure;BME280_temperature;BME280_humidity;BME280_pressure;Samples;Min_cycle;Max_cycle;Signal;HPM_P1;HPM_P2
2022/09/06 00:01:16;;;;;;;;;7.33;7.33;;;;;21.32;100.00;100696.13;5009260;28;45688;-83
2022/09/06 00:03:42;;;;;;;;;6.67;6.67;;;;;21.31;100.00;100693.44;5029005;28;45652;-83
2022/09/06 00:06:11;;;;;;;;;7.67;6.33;;;;;21.28;100.00;100694.44;5009850;28;45952;-84
2022/09/06 00:08:37;;;;;;;;;6.00;6.00;;;;;21.26;100.00;100701.72;5028597;28;45408;-83
2022/09/06 00:11:04;;;;;;;;;8.33;7.00;;;;;21.30;100.00;100703.41;5011067;28;46012;-83
2022/09/06 00:13:29;;;;;;;;;7.00;7.00;;;;;21.30;100.00;100708.81;5010514;28;46871;-83
2022/09/06 00:15:55;;;;;;;;;7.00;6.33;;;;;21.23;100.00;100695.50;5010699;28;45446;-83
2022/09/06 00:18:22;;;;;;;;;9.00;9.00;;;;;21.25;100.00;100708.06;5027611;28;45264;-83
2022/09/06 00:20:47;;;;;;;;;8.00;8.00;;;;;21.20;100.00;100706.44;5029471;28;44816;-83
2022/09/06 00:23:13;;;;;;;;;10.00;8.33;;;;;21.18;100.00;100704.66;5026965;28;48338;-83
2022/09/06 00:25:40;;;;;;;;;8.00;7.00;;;;;21.16;100.00;100705.63;5045096;28;45484;-83
2022/09/06 00:28:06;;;;;;;;;7.00;7.00;;;;;21.14;100.00;100716.50;5028364;28;45434;-83
2022/09/06 00:30:33;;;;;;;;;7.00;6.33;;;;;21.14;100.00;100716.50;5046605;28;45394;-82
2022/09/06 00:32:58;;;;;;;;;7.00;7.00;;;;;21.14;100.00;100726.44;5045380;28;45550;-83
2022/09/06 00:35:25;;;;;;;;;8.33;7.00;;;;;21.09;100.00;100720.31;5027298;28;45708;-83
2022/09/06 00:37:55;;;;;;;;;6.00;6.00;;;;;21.14;100.00;100729.16;5027010;28;45462;-83
2022/09/06 00:40:21;;;;;;;;;6.67;6.67;;;;;21.07;100.00;100712.22;5027179;28;45552;-83
2022/09/06 00:42:46;;;;;;;;;6.67;6.67;;;;;21.14;100.00;100712.91;5025665;28;46869;-82
2022/09/06 00:45:13;;;;;;;;;6.67;6.67;;;;;21.15;100.00;100722.81;5044981;28;45418;-83
2022/09/06 00:47:41;;;;;;;;;7.33;7.33;;;;;21.16;100.00;100717.34;5043881;28;45572;-82
2022/09/06 00:50:08;;;;;;;;;8.67;8.67;;;;;21.16;100.00;100716.47;5026155;28;45427;-83
2022/09/06 00:52:35;;;;;;;;;8.00;8.00;;;;;21.16;100.00;100716.47;5042203;28;45418;-83
2022/09/06 00:55:01;;;;;;;;;9.67;9.67;;;;;21.15;100.00;100720.13;5025820;28;45429;-83
2022/09/06 00:57:29;;;;;;;;;6.67;6.67;;;;;21.12;100.00;100695.84;5043706;28;45437;-83
2022/09/06 00:59:55;;;;;;;;;7.00;6.00;;;;;21.12;100.00;100717.47;5025581;28;45559;-83
2022/09/06 01:02:21;;;;;;;;;5.00;5.00;;;;;21.10;100.00;100705.81;5037316;28;47021;-83
2022/09/06 01:04:47;;;;;;;;;6.67;6.67;;;;;21.09;100.00;100704.06;5017407;28;44983;-83
2022/09/06 01:08:04;;;;;;;;;6.67;6.00;;;;;21.17;100.00;100715.53;5042840;28;45469;-83
2022/09/06 01:10:34;;;;;;;;;7.33;6.67;;;;;21.18;100.00;100714.59;4982076;28;45361;-83
2022/09/06 01:13:19;;;;;;;;;5.67;5.67;;;;;21.16;100.00;100717.34;4986358;28;46794;-83
2022/09/06 01:15:47;;;;;;;;;7.33;7.00;;;;;21.19;100.00;100702.84;5001105;28;45683;-83
2022/09/06 01:18:21;;;;;;;;;8.00;7.33;;;;;21.18;100.00;100711.88;4996109;28;44933;-83
2022/09/06 01:21:09;;;;;;;;;7.00;7.00;;;;;21.16;100.00;100711.94;5001556;28;45467;-83
2022/09/06 01:23:58;;;;;;;;;7.00;5.00;;;;;21.11;100.00;100696.81;5001833;28;45681;-83
2022/09/06 01:26:52;;;;;;;;;7.00;7.00;;;;;21.09;100.00;100704.94;5002986;28;46130;-81
2022/09/06 01:29:29;;;;;;;;;8.00;6.33;;;;;21.07;100.00;100696.00;5006586;28;45382;-83
2022/09/06 01:32:35;;;;;;;;;7.00;7.00;;;;;21.10;100.00;100703.13;5007250;28;45610;-82
2022/09/06 01:35:20;;;;;;;;;9.00;7.67;;;;;21.09;100.00;100709.47;4988650;28;47298;-82
2022/09/06 01:37:46;;;;;;;;;8.00;8.00;;;;;21.04;100.00;100706.00;5005635;28;45735;-82
2022/09/06 01:40:12;;;;;;;;;7.00;5.00;;;;;21.04;100.00;100711.41;4983106;28;45424;-82
2022/09/06 01:42:41;;;;;;;;;5.67;5.67;;;;;21.00;100.00;100713.31;4985650;28;45397;-82
2022/09/06 01:45:13;;;;;;;;;8.33;8.33;;;;;20.95;100.00;100718.88;4983883;28;46040;-83
2022/09/06 01:48:06;;;;;;;;;7.75;7.75;;;;;20.93;100.00;100718.03;4979948;28;45601;-83
2022/09/06 01:50:31;;;;;;;;;7.00;7.00;;;;;20.91;100.00;100717.19;4981274;28;45471;-83
2022/09/06 01:53:21;;;;;;;;;6.00;6.00;;;;;20.90;100.00;100712.69;4965125;28;45715;-83
2022/09/06 01:56:07;;;;;;;;;7.67;6.67;;;;;20.90;100.00;100707.28;4987603;28;46167;-84
2022/09/06 01:58:51;;;;;;;;;7.33;7.33;;;;;20.88;100.00;100701.03;5000980;28;45508;-83
2022/09/06 02:01:34;;;;;;;;;9.00;8.33;;;;;20.86;100.00;100696.63;4980378;28;45461;-83
2022/09/06 02:04:20;;;;;;;;;7.67;7.00;;;;;20.80;100.00;100703.09;4987964;28;45632;-83
2022/09/06 02:06:54;;;;;;;;;7.00;7.00;;;;;20.77;100.00;100697.78;4999785;28;45483;-83
2022/09/06 02:09:23;;;;;;;;;8.00;8.00;;;;;20.72;100.00;100689.81;5010222;28;45418;-83
2022/09/06 02:12:00;;;;;;;;;9.67;8.33;;;;;20.75;100.00;100700.53;5043920;28;45414;-84
2022/09/06 02:15:04;;;;;;;;;9.00;9.00;;;;;20.73;100.00;100694.28;5027367;28;44942;-84
2022/09/06 02:17:37;;;;;;;;;8.00;6.67;;;;;20.63;100.00;100684.66;4984044;28;45571;-83
2022/09/06 02:20:13;;;;;;;;;7.00;7.00;;;;;20.63;100.00;100690.06;4984978;28;44727;-83
2022/09/06 02:22:43;;;;;;;;;8.33;8.00;;;;;20.66;100.00;100700.78;4984623;28;44743;-83
2022/09/06 02:25:12;;;;;;;;;9.00;8.00;;;;;20.62;100.00;100700.91;4982564;28;44952;-83
2022/09/06 02:27:38;;;;;;;;;9.00;9.00;;;;;20.61;100.00;100699.16;4966220;28;46859;-83
2022/09/06 02:30:05;;;;;;;;;8.00;8.00;;;;;20.55;100.00;100702.88;4967295;28;45536;-83
2022/09/06 02:32:36;;;;;;;;;7.00;6.67;;;;;20.51;100.00;100702.06;4983355;28;45534;-83
2022/09/06 02:35:11;;;;;;;;;9.33;8.00;;;;;20.47;100.00;100700.38;4983622;28;45470;-83
2022/09/06 02:37:37;;;;;;;;;8.67;8.33;;;;;20.41;100.00;100699.66;4983237;28;46305;-83
2022/09/06 02:40:03;;;;;;;;;6.67;6.00;;;;;20.35;100.00;100700.72;4983998;28;45375;-83
2022/09/06 02:42:28;;;;;;;;;9.00;7.67;;;;;20.34;100.00;100709.72;4966673;28;45403;-83
2022/09/06 02:44:54;;;;;;;;;9.67;9.67;;;;;20.33;100.00;100713.38;4983605;28;45442;-83
2022/09/06 02:47:19;;;;;;;;;9.67;9.67;;;;;20.30;100.00;100708.97;4982765;28;46970;-83
2022/09/06 02:49:45;;;;;;;;;11.00;9.67;;;;;20.24;100.00;100701.03;4966423;28;45459;-83
2022/09/06 02:52:10;;;;;;;;;8.33;8.33;;;;;20.21;100.00;100689.41;4982868;28;45014;-82
2022/09/06 02:54:36;;;;;;;;;9.33;9.33;;;;;20.21;100.00;100686.69;5020600;28;45546;-83
2022/09/06 02:57:01;;;;;;;;;9.33;8.33;;;;;20.22;100.00;100685.75;5026859;28;46980;-82
2022/09/06 02:59:27;;;;;;;;;9.67;8.33;;;;;20.21;100.00;100694.81;5041874;28;45430;-83
2022/09/06 03:01:52;;;;;;;;;6.67;6.67;;;;;20.21;100.00;100692.97;5041352;28;45420;-83
2022/09/06 03:04:18;;;;;;;;;8.00;7.67;;;;;20.24;100.00;100700.09;5023382;28;45470;-83
2022/09/06 03:06:43;;;;;;;;;9.00;9.00;;;;;20.16;100.00;100687.72;5041028;28;45470;-83
2022/09/06 03:09:09;;;;;;;;;7.00;7.00;;;;;20.20;100.00;100702.03;5023384;28;44818;-83
2022/09/06 03:11:35;;;;;;;;;8.00;6.67;;;;;20.15;100.00;100693.16;5024410;28;45458;-83
2022/09/06 03:14:00;;;;;;;;;8.33;8.33;;;;;20.14;100.00;100696.78;5028509;28;45553;-83
2022/09/06 03:16:26;;;;;;;;;9.50;8.00;;;;;20.05;100.00;100689.78;5048141;28;45407;-83
2022/09/06 03:18:51;;;;;;;;;6.00;6.00;;;;;20.10;100.00;100703.19;5027783;28;45378;-83
2022/09/06 03:21:17;;;;;;;;;9.00;9.00;;;;;20.13;100.00;100720.19;5045851;28;45387;-83
2022/09/06 03:23:42;;;;;;;;;7.33;7.33;;;;;20.12;100.00;100726.53;5024637;28;45394;-84
2022/09/06 03:26:07;;;;;;;;;8.67;8.67;;;;;20.13;100.00;100730.97;5042777;28;48244;-83
2022/09/06 03:28:33;;;;;;;;;7.00;7.00;;;;;20.09;100.00;100726.59;5031094;28;45378;-84
2022/09/06 03:30:58;;;;;;;;;6.00;6.00;;;;;20.13;100.00;100733.69;5042717;28;45425;-83
2022/09/06 03:33:24;;;;;;;;;8.00;8.00;;;;;20.10;100.00;100720.28;5039343;28;44667;-83
2022/09/06 03:35:51;;;;;;;;;8.67;7.00;;;;;20.10;100.00;100725.69;5045617;28;45312;-83
2022/09/06 03:38:17;;;;;;;;;9.25;6.00;;;;;20.14;100.00;100740.88;5025668;28;45497;-83
2022/09/06 03:40:44;;;;;;;;;7.00;7.00;;;;;20.18;100.00;100747.97;5043637;28;45346;-83
2022/09/06 03:43:09;;;;;;;;;7.33;7.33;;;;;20.14;100.00;100748.97;5026865;28;45682;-83
2022/09/06 03:45:35;;;;;;;;;9.33;9.33;;;;;20.16;100.00;100749.81;5044006;28;45365;-83
2022/09/06 03:48:00;;;;;;;;;7.00;7.00;;;;;20.18;100.00;100753.38;5044768;28;45310;-83
2022/09/06 03:50:26;;;;;;;;;7.00;7.00;;;;;20.18;100.00;100753.38;5044482;28;45488;-83
2022/09/06 03:52:51;;;;;;;;;7.33;7.33;;;;;20.12;100.00;100758.94;5043545;28;45719;-83
2022/09/06 03:55:16;;;;;;;;;8.00;7.00;;;;;20.15;100.00;100761.53;5026160;28;48393;-82
2022/09/06 03:57:43;;;;;;;;;8.00;8.00;;;;;20.20;100.00;100769.53;5045380;28;45670;-83
2022/09/06 04:00:09;;;;;;;;;8.00;8.00;;;;;20.18;100.00;100764.16;5026869;28;45359;-83
2022/09/06 04:02:34;;;;;;;;;9.33;9.33;;;;;20.18;100.00;100766.00;5027192;28;45705;-82
2022/09/06 04:05:00;;;;;;;;;9.33;9.33;;;;;20.13;100.00;100765.19;5045790;28;45470;-82
2022/09/06 04:07:25;;;;;;;;;7.67;7.67;;;;;20.13;100.00;100762.50;5045161;28;45390;-83
2022/09/06 04:09:52;;;;;;;;;9.33;8.00;;;;;20.13;100.00;100755.28;5026587;28;45516;-83
2022/09/06 04:12:17;;;;;;;;;10.67;10.67;;;;;20.14;100.00;100762.47;5045317;28;45457;-83
2022/09/06 04:14:43;;;;;;;;;6.00;5.00;;;;;20.18;100.00;100768.69;5026393;28;47036;-83
2022/09/06 04:17:08;;;;;;;;;8.33;7.00;;;;;20.16;100.00;100766.03;5025917;28;45437;-82
2022/09/06 04:19:34;;;;;;;;;7.33;7.33;;;;;20.24;100.00;100773.03;5044808;28;45458;-82
2022/09/06 04:21:59;;;;;;;;;7.00;7.00;;;;;20.21;100.00;100763.19;5042439;28;45493;-82
2022/09/06 04:24:32;;;;;;;;;8.00;6.33;;;;;20.26;100.00;100771.16;5027164;28;47318;-82
2022/09/06 04:26:57;;;;;;;;;9.00;8.00;;;;;20.26;100.00;100777.47;5026696;28;45482;-82
2022/09/06 04:29:23;;;;;;;;;7.00;7.00;;;;;20.28;100.00;100785.53;5025054;28;45401;-83
2022/09/06 04:31:48;;;;;;;;;3.00;2.67;;;;;20.26;100.00;100787.38;5044418;28;45434;-84
2022/09/06 04:34:15;;;;;;;;;6.00;6.00;;;;;20.22;100.00;100788.38;5026052;28;48148;-84
2022/09/06 04:36:40;;;;;;;;;7.33;7.33;;;;;20.17;100.00;100789.38;5044616;28;45333;-83
2022/09/06 04:39:06;;;;;;;;;7.00;7.00;;;;;20.17;100.00;100789.38;5043219;28;45486;-83
2022/09/06 04:41:32;;;;;;;;;8.00;8.00;;;;;20.16;100.00;100792.16;5026910;28;45422;-83
2022/09/06 04:43:57;;;;;;;;;8.00;6.33;;;;;20.10;100.00;100782.38;5026786;28;47018;-83
2022/09/06 04:46:27;;;;;;;;;7.67;7.67;;;;;20.11;100.00;100794.94;5027199;28;45418;-83
2022/09/06 04:48:54;;;;;;;;;8.67;8.00;;;;;20.10;100.00;100798.56;5043544;28;45595;-84
2022/09/06 04:51:21;;;;;;;;;8.00;8.00;;;;;20.10;100.00;100803.97;5044063;28;45723;-83
2022/09/06 04:53:47;;;;;;;;;8.33;8.33;;;;;20.09;100.00;100802.19;5025403;28;48431;-83
2022/09/06 04:56:22;;;;;;;;;8.00;6.33;;;;;20.09;100.00;100799.47;5028883;28;45443;-84
2022/09/06 04:58:50;;;;;;;;;7.00;6.00;;;;;20.04;100.00;100798.72;5047211;28;45458;-83
2022/09/06 05:01:16;;;;;;;;;7.00;7.00;;;;;20.03;100.00;100798.75;5047613;28;45433;-83
2022/09/06 05:03:41;;;;;;;;;7.33;7.00;;;;;20.06;100.00;100810.38;5029657;28;48068;-82
2022/09/06 05:06:17;;;;;;;;;7.33;7.33;;;;;20.04;100.00;100814.03;5031279;28;45462;-82
2022/09/06 05:08:42;;;;;;;;;6.00;6.00;;;;;20.02;100.00;100805.97;5028667;28;45519;-82
2022/09/06 05:11:08;;;;;;;;;10.33;8.00;;;;;19.97;100.00;100802.47;5046945;28;45389;-82
2022/09/06 05:13:34;;;;;;;;;7.00;7.00;;;;;19.97;100.00;100797.09;5029061;28;46909;-82
2022/09/06 05:16:01;;;;;;;;;7.33;7.33;;;;;19.97;100.00;100797.09;5047292;28;45476;-83
2022/09/06 05:18:27;;;;;;;;;8.33;8.33;;;;;19.94;100.00;100799.88;5029259;28;45440;-83
2022/09/06 05:20:53;;;;;;;;;10.00;8.67;;;;;19.88;100.00;100798.19;5029133;28;45331;-83
2022/09/06 05:23:20;;;;;;;;;10.67;10.67;;;;;19.89;100.00;100805.34;5044714;28;45485;-82
2022/09/06 05:25:45;;;;;;;;;6.00;6.00;;;;;19.86;100.00;100800.06;5025517;28;45438;-82
2022/09/06 05:28:11;;;;;;;;;7.00;7.00;;;;;19.91;100.00;100813.44;5047376;28;45457;-82
2022/09/06 05:30:37;;;;;;;;;8.00;7.00;;;;;19.95;100.00;100820.53;5029889;28;45628;-85
2022/09/06 05:36:29;;;;;;;;;5.33;4.67;;;;;19.97;100.00;100802.47;5047892;28;45331;-85
2022/09/06 05:38:55;;;;;;;;;8.33;8.33;;;;;19.96;100.00;100795.31;5048033;28;45386;-86
2022/09/06 05:41:22;;;;;;;;;11.33;11.33;;;;;19.97;100.00;100802.47;5049699;28;45159;-86
2022/09/06 05:43:48;;;;;;;;;12.67;11.67;;;;;19.99;100.00;100800.63;5031933;28;46757;-86
2022/09/06 05:46:14;;;;;;;;;9.33;9.00;;;;;20.06;100.00;100804.09;5032766;28;45435;-87
2022/09/06 05:48:40;;;;;;;;;10.33;9.00;;;;;20.18;100.00;100809.19;5049939;28;45851;-86
2022/09/06 05:51:11;;;;;;;;;13.00;10.67;;;;;20.11;100.00;100788.66;5033880;28;45583;-86
2022/09/06 05:53:37;;;;;;;;;10.67;10.00;;;;;20.27;100.00;100802.66;5032936;28;46839;-86
2022/09/06 05:56:04;;;;;;;;;8.67;8.67;;;;;20.33;100.00;100797.13;5031765;28;45426;-86
2022/09/06 05:58:30;;;;;;;;;9.33;8.00;;;;;20.39;100.00;100805.94;5047387;28;44766;-86
2022/09/06 06:04:17;;;;;;;;;13.00;13.00;;;;;20.64;100.00;100788.22;5046714;28;45330;-87
2022/09/06 06:06:44;;;;;;;;;8.67;8.00;;;;;20.82;100.00;100803.94;5028850;28;45539;-87
2022/09/06 06:09:10;;;;;;;;;10.67;10.00;;;;;20.91;100.00;100809.13;5027263;28;45413;-87
2022/09/06 06:11:37;;;;;;;;;11.00;10.00;;;;;21.04;100.00;100804.22;5047417;28;45343;-87
2022/09/06 06:14:03;;;;;;;;;10.00;8.67;;;;;21.23;100.00;100804.63;5046478;28;45409;-87
2022/09/06 06:16:29;;;;;;;;;8.33;8.33;;;;;21.32;100.00;100793.50;5027812;28;45644;-86
2022/09/06 06:18:55;;;;;;;;;8.33;8.33;;;;;21.45;100.00;100795.88;5027817;28;45521;-87
2022/09/06 06:21:26;;;;;;;;;10.00;9.00;;;;;21.37;100.00;100766.34;5045886;28;45271;-87
2022/09/06 06:23:54;;;;;;;;;11.00;11.00;;;;;21.65;100.00;100788.03;5027120;28;46901;-87
2022/09/06 06:26:21;;;;;;;;;10.33;9.33;;;;;21.67;100.00;100785.28;5045641;28;45314;-87
2022/09/06 06:28:47;;;;;;;;;8.00;8.00;;;;;21.73;100.00;100787.78;5027889;28;45713;-87
2022/09/06 06:31:13;;;;;;;;;11.00;10.67;;;;;21.80;100.00;100788.50;5046464;28;45605;-88
2022/09/06 06:33:39;;;;;;;;;9.67;9.00;;;;;21.90;100.00;100790.00;5028586;28;46907;-87
2022/09/06 06:39:26;;;;;;;;;12.00;11.67;;;;;22.14;100.00;100785.59;5045733;28;45411;-87
2022/09/06 06:41:52;;;;;;;;;11.00;9.00;;;;;22.18;100.00;100771.00;5029214;28;45343;-87
2022/09/06 06:44:17;;;;;;;;;9.67;9.67;;;;;22.27;100.00;100788.81;5046538;28;45925;-87
2022/09/06 06:46:43;;;;;;;;;8.67;8.67;;;;;22.31;100.00;100793.19;5029264;28;45434;-88
2022/09/06 06:49:08;;;;;;;;;9.00;9.00;;;;;22.37;100.00;100787.53;5046807;28;45425;-86
2022/09/06 06:51:36;;;;;;;;;8.33;7.67;;;;;22.37;99.17;100785.72;5030030;28;44777;-86
2022/09/06 06:54:03;;;;;;;;;9.00;9.00;;;;;22.48;99.27;100782.66;5029542;28;47245;-86
2022/09/06 06:56:34;;;;;;;;;11.00;9.67;;;;;22.52;98.75;100791.53;5047609;28;45459;-86
2022/09/06 06:59:03;;;;;;;;;8.33;8.33;;;;;22.46;98.73;100795.38;5048070;28;45203;-87
2022/09/06 07:02:06;;;;;;;;;10.67;10.33;;;;;22.61;98.54;100787.66;5036647;28;45841;-86
2022/09/06 07:04:31;;;;;;;;;9.00;9.00;;;;;22.55;97.76;100781.47;5029109;28;47897;-87
2022/09/06 07:07:00;;;;;;;;;13.33;11.67;;;;;22.55;97.81;100788.75;5029153;28;45443;-88
2022/09/06 07:09:26;;;;;;;;;8.67;8.00;;;;;22.46;97.82;100778.22;5047450;28;45394;-87
2022/09/06 07:11:51;;;;;;;;;19.00;16.67;;;;;22.37;97.81;100779.41;5029278;28;45332;-86
2022/09/06 07:14:18;;;;;;;;;15.33;15.33;;;;;22.33;98.03;100783.16;5047260;28;45431;-87
2022/09/06 07:16:44;;;;;;;;;19.33;17.67;;;;;22.15;98.10;100735.88;5012854;28;45312;-87
2022/09/06 07:19:22;;;;;;;;;11.33;10.33;;;;;22.43;97.76;100760.22;5030437;28;45667;-88
2022/09/06 07:21:49;;;;;;;;;10.67;9.67;;;;;22.69;97.11;100774.69;5028600;28;45390;-87
2022/09/06 07:24:15;;;;;;;;;8.67;8.67;;;;;22.82;97.03;100781.44;5030314;28;46791;-87
2022/09/06 07:26:40;;;;;;;;;10.00;10.00;;;;;22.93;96.45;100768.38;5044973;28;45426;-86
2022/09/06 07:29:07;;;;;;;;;10.00;10.00;;;;;23.17;96.29;100792.88;5033024;28;45512;-86
2022/09/06 07:31:34;;;;;;;;;10.00;10.00;;;;;23.27;95.36;100780.72;5012996;28;44983;-87
2022/09/06 07:34:05;;;;;;;;;7.67;7.00;;;;;23.20;94.57;100745.75;5015065;28;47035;-88
2022/09/06 07:36:48;;;;;;;;;11.00;11.00;;;;;23.41;93.64;100758.50;5029525;28;45782;-85
2022/09/06 07:39:24;;;;;;;;;10.33;10.33;;;;;23.64;92.23;100798.28;5048584;28;44773;-86
2022/09/06 07:41:53;;;;;;;;;7.67;7.67;;;;;23.59;91.23;100766.84;5040725;28;44958;-84
2022/09/06 07:44:21;;;;;;;;;8.00;8.00;;;;;23.62;90.71;100797.47;5030176;28;46943;-87
2022/09/06 07:47:06;;;;;;;;;;;;;;;;;;;;;
2022/09/06 07:49:45;;;;;;;;;6.00;6.00;;;;;23.49;90.06;100756.34;5041829;28;68720;-87
2022/09/06 07:52:24;;;;;;;;;7.00;5.67;;;;;23.57;90.20;100756.03;5028334;28;45191;-87
2022/09/06 07:55:19;;;;;;;;;8.33;6.33;;;;;23.69;89.23;100771.88;5021008;28;45726;-88
2022/09/06 08:05:39;;;;;;;;;5.00;5.00;;;;;24.26;87.54;100784.94;5037133;28;44810;-86
2022/09/06 08:09:05;;;;;;;;;6.33;6.33;;;;;24.39;86.55;100791.66;4995276;28;45554;-88
2022/09/06 08:12:05;;;;;;;;;;;;;;;;;;;;;
2022/09/06 08:15:00;;;;;;;;;6.33;6.33;;;;;24.32;84.75;100780.16;5606798;22;69000;-88
2022/09/06 08:21:45;;;;;;;;;10.00;10.00;;;;;24.08;85.17;100756.75;4892716;28;45535;-89
2022/09/06 08:24:21;;;;;;;;;5.33;5.33;;;;;24.45;83.72;100785.94;4930090;28;45510;-88
2022/09/06 08:26:51;;;;;;;;;5.67;5.67;;;;;24.46;83.61;100782.28;4931031;28;45488;-87
2022/09/06 08:29:19;;;;;;;;;5.67;4.00;;;;;24.34;83.25;100733.91;4915002;28;46069;-87
2022/09/06 08:31:48;;;;;;;;;8.00;6.67;;;;;24.58;82.93;100759.13;4928588;28;45811;-83
2022/09/06 08:34:19;;;;;;;;;4.33;4.33;;;;;24.55;81.09;100732.97;4918930;28;45517;-86
2022/09/06 08:36:45;;;;;;;;;5.00;5.00;;;;;24.65;81.02;100730.72;4919641;28;45473;-84
2022/09/06 08:39:11;;;;;;;;;4.33;4.33;;;;;24.82;80.51;100745.41;4915336;28;44888;-83
2022/09/06 08:41:59;;;;;;;;;5.00;5.00;;;;;25.11;79.53;100774.03;4931206;28;45417;-85
2022/09/06 08:44:57;;;;;;;;;4.00;4.00;;;;;25.06;79.11;100744.28;4922897;28;45493;-85
2022/09/06 08:47:34;;;;;;;;;5.33;5.33;;;;;25.25;79.19;100766.13;4914828;29;45526;-85
2022/09/06 08:50:06;;;;;;;;;10.67;10.67;;;;;25.19;78.86;100735.53;4929042;28;45641;-85
2022/09/06 08:52:40;;;;;;;;;9.00;6.00;;;;;25.39;78.29;100756.41;4914219;28;45656;-85
2022/09/06 08:55:27;;;;;;;;;12.67;9.33;;;;;25.43;77.72;100758.03;4924594;28;45461;-85
2022/09/06 08:58:04;;;;;;;;;4.67;4.00;;;;;25.44;77.54;100743.47;5010645;28;45590;-85
2022/09/06 09:01:08;;;;;;;;;8.67;8.67;;;;;25.40;76.78;100730.97;5010831;28;45570;-84
2022/09/06 09:03:42;;;;;;;;;12.67;12.67;;;;;25.66;76.77;100776.88;5018465;28;45565;-84
2022/09/06 09:06:10;;;;;;;;;7.00;7.00;;;;;25.68;74.53;100757.75;5029160;28;45436;-85
2022/09/06 09:09:05;;;;;;;;;6.67;4.67;;;;;25.84;72.88;100775.09;5008119;28;45531;-84
2022/09/06 09:11:34;;;;;;;;;5.33;5.33;;;;;25.73;69.77;100740.22;5011612;28;45590;-84
2022/09/06 09:14:42;;;;;;;;;6.33;5.00;;;;;25.89;71.65;100777.59;5026601;28;45595;-84
2022/09/06 09:17:30;;;;;;;;;3.33;3.33;;;;;25.79;70.97;100777.16;5005214;28;44808;-84
2022/09/06 09:20:16;;;;;;;;;3.67;3.67;;;;;25.83;70.92;100783.34;4999142;28;44949;-86
2022/09/06 09:22:45;;;;;;;;;5.33;5.33;;;;;25.82;68.92;100762.53;4992881;28;45476;-84
2022/09/06 09:25:21;;;;;;;;;4.67;3.00;;;;;25.94;69.74;100775.56;4999249;28;45729;-84
2022/09/06 09:28:20;;;;;;;;;4.67;4.67;;;;;26.12;69.34;100787.41;5003555;28;45479;-83
2022/09/06 09:30:55;;;;;;;;;5.00;5.00;;;;;26.26;68.46;100792.16;4994536;28;45419;-84
2022/09/06 09:33:46;;;;;;;;;3.00;3.00;;;;;26.44;68.22;100801.22;4993774;28;45415;-84
2022/09/06 09:36:55;;;;;;;;;10.33;10.33;;;;;26.51;67.43;100775.41;5008693;28;45677;-86
2022/09/06 09:39:37;;;;;;;;;8.75;4.75;;;;;26.77;67.14;100770.47;5021759;28;45615;-84
2022/09/06 09:42:03;;;;;;;;;3.50;3.50;;;;;27.02;65.92;100789.13;5024116;28;45500;-85
2022/09/06 09:44:29;;;;;;;;;4.00;4.00;;;;;27.11;64.19;100777.72;4991158;28;45353;-85
2022/09/06 09:46:54;;;;;;;;;6.00;6.00;;;;;27.02;62.20;100765.44;4993148;28;47841;-85
2022/09/06 09:49:20;;;;;;;;;6.33;6.33;;;;;27.14;61.43;100772.09;5004916;28;45527;-85
2022/09/06 09:52:22;;;;;;;;;11.00;10.00;;;;;27.16;60.50;100778.34;5007534;28;45519;-84
2022/09/06 09:54:57;;;;;;;;;9.33;8.33;;;;;26.95;59.03;100747.66;5004979;28;45643;-84
2022/09/06 09:57:59;;;;;;;;;8.67;8.67;;;;;27.07;59.00;100773.41;4991251;28;45626;-86
2022/09/06 10:00:42;;;;;;;;;9.00;7.00;;;;;26.91;57.42;100760.59;5015061;28;44837;-85
2022/09/06 10:03:29;;;;;;;;;4.00;3.67;;;;;26.84;59.11;100780.97;5010262;28;45483;-86
2022/09/06 10:06:26;;;;;;;;;2.25;2.25;;;;;26.92;59.01;100800.56;5023836;28;45030;-86
2022/09/06 10:09:53;;;;;;;;;3.33;3.33;;;;;26.97;58.73;100805.78;5007384;28;45561;-86
2022/09/06 10:13:11;;;;;;;;;3.00;3.00;;;;;27.11;58.70;100814.09;5017901;28;45417;-86
2022/09/06 10:16:18;;;;;;;;;;;;;;;;;;;;;
2022/09/06 10:26:09;;;;;;;;;;;;;;;;;;;;;
2022/09/06 10:28:54;;;;;;;;;2.33;2.33;;;;;27.22;55.68;100771.69;4892669;29;45524;-87
2022/09/06 10:38:12;;;;;;;;;6.33;6.33;;;;;27.07;55.87;100760.63;727290;26;46235;-86
2022/09/06 11:01:15;;;;;;;;;2.00;2.00;;;;;26.64;57.49;100729.31;2041303;23;46263;-86
2022/09/06 11:03:51;;;;;;;;;2.67;2.67;;;;;26.65;58.25;100712.00;4911200;29;45499;-85
2022/09/06 11:12:56;;;;;;;;;18.67;16.33;;;;;27.33;57.22;100720.13;4813607;29;45060;-87
2022/09/06 11:15:52;;;;;;;;;5.00;5.00;;;;;27.40;57.23;100696.94;4816958;29;45435;-87
2022/09/06 11:18:57;;;;;;;;;5.33;5.33;;;;;27.62;55.74;100707.53;4777790;29;45529;-87
2022/09/06 11:22:07;;;;;;;;;;;;;;;;;;;;;
2022/09/06 11:35:32;;;;;;;;;5.33;4.33;;;;;27.59;56.32;100695.88;4713914;30;45460;-87
2022/09/06 11:38:03;;;;;;;;;7.67;6.00;;;;;27.44;57.36;100673.06;4731441;30;45646;-87
2022/09/06 11:51:48;;;;;;;;;2.33;2.33;;;;;27.32;56.19;100655.53;4746463;29;45686;-87
2022/09/06 11:54:17;;;;;;;;;4.67;4.00;;;;;27.45;55.38;100685.75;4746681;29;44853;-87
2022/09/06 11:57:00;;;;;;;;;7.00;7.00;;;;;27.40;56.05;100679.69;4817901;29;45465;-87
2022/09/06 11:59:45;;;;;;;;;5.33;5.33;;;;;27.36;54.86;100678.97;4835926;29;45283;-85
2022/09/06 12:02:47;;;;;;;;;4.00;4.00;;;;;27.29;54.63;100681.19;4834473;29;45448;-85
2022/09/06 12:06:10;;;;;;;;;;;;;;;;;;;;;
2022/09/06 12:09:13;;;;;;;;;;;;;;;;;;;;;
2022/09/06 12:26:53;;;;;;;;;;;;;;;;;;;;;
2022/09/06 12:30:14;;;;;;;;;;;;;;;;;;;;;
2022/09/06 12:50:44;;;;;;;;;10.67;8.33;;;;;27.60;48.45;100586.53;4665000;30;45614;-87
2022/09/06 12:53:33;;;;;;;;;2.75;2.75;;;;;27.63;47.22;100613.69;4643544;30;45583;-87
2022/09/06 12:56:59;;;;;;;;;3.00;3.00;;;;;27.55;49.54;100613.22;4672849;30;45422;-87
2022/09/06 13:00:26;;;;;;;;;;;;;;;;;;;;;
2022/09/06 13:04:03;;;;;;;;;3.00;3.00;;;;;27.45;49.38;100612.00;4661693;30;68513;-88
2022/09/06 13:31:24;;;;;;;;;2.67;2.67;;;;;27.45;50.43;100565.56;5496730;23;45495;-88
2022/09/06 13:34:50;;;;;;;;;4.00;2.00;;;;;27.44;50.14;100563.81;4895689;29;45277;-88
2022/09/06 13:41:23;;;;;;;;;7.00;5.00;;;;;27.18;50.85;100506.13;4768639;29;45338;-88
2022/09/06 13:44:52;;;;;;;;;;;;;;;;;;;;;
2022/09/06 13:47:46;;;;;;;;;6.00;6.00;;;;;27.49;50.36;100539.81;4719967;30;74453;-89
2022/09/06 13:50:40;;;;;;;;;4.33;4.33;;;;;27.35;50.23;100491.53;4713508;30;45260;-88
2022/09/06 13:53:45;;;;;;;;;2.00;2.00;;;;;27.65;50.01;100531.59;4705494;30;45488;-88
2022/09/06 13:56:34;;;;;;;;;;;;;;;;;;;;;
2022/09/06 14:07:05;;;;;;;;;;;;;;;;;;;;;
2022/09/06 14:10:52;;;;;;;;;;;;;;;;;;;;;
2022/09/06 14:14:38;;;;;;;;;5.00;5.00;;;;;30.50;46.65;100506.31;4635520;30;45407;-85
2022/09/06 14:20:46;;;;;;;;;5.00;4.67;;;;;30.85;42.41;100489.09;4700029;30;45498;-88
2022/09/06 14:23:41;;;;;;;;;7.00;7.00;;;;;30.27;41.71;100482.38;4658773;30;44945;-87
2022/09/06 14:26:47;;;;;;;;;;;;;;;;;;;;;
2022/09/06 15:16:20;;;;;;;;;2.33;2.33;;;;;29.87;40.32;100419.44;5404292;23;46597;-87
2022/09/06 15:23:43;;;;;;;;;;;;;;;;;;;;;
2022/09/06 15:36:58;;;;;;;;;2.67;2.00;;;;;30.86;36.04;100389.25;4657034;30;45505;-87
2022/09/06 15:39:27;;;;;;;;;2.00;2.00;;;;;30.71;36.03;100382.19;4657393;30;45618;-87
2022/09/06 15:42:07;;;;;;;;;2.00;1.00;;;;;30.69;36.15;100381.44;4644426;30;45663;-87
2022/09/06 15:50:02;;;;;;;;;2.67;2.67;;;;;30.79;35.33;100393.47;4595389;30;45513;-87
2022/09/06 15:52:31;;;;;;;;;;;;;;;;;;;;;
2022/09/06 15:57:40;;;;;;;;;1.33;1.00;;;;;30.57;34.95;100393.34;4610775;30;45494;-86
2022/09/06 16:00:07;;;;;;;;;2.00;2.00;;;;;30.45;34.88;100379.53;4627094;30;45911;-86
2022/09/06 16:02:43;;;;;;;;;1.33;1.00;;;;;30.35;34.87;100372.13;4630249;30;45442;-87
2022/09/06 16:05:10;;;;;;;;;1.00;1.00;;;;;30.19;34.51;100361.38;4627966;30;45540;-86
2022/09/06 16:07:43;;;;;;;;;1.33;1.33;;;;;30.36;34.90;100377.50;4673430;30;45398;-86